PROFILE

 METAR AND TAF INFORMATION
ADDS - METARS form results

(0054 UTC 21 November 2022)
http://aviationweather.gov/metar/data/
 
EKVG 210050Z AUTO 15013KT 9999 BKN017/// 07/05 Q0999 RMK BKN013/// WIND SKEID 14021KT
EKVG 210020Z AUTO 14013KT 9999 BKN015/// BKN027/// 07/05 Q0999 RMK BKN017/// WIND SKEID 13025KT
TAF EKVG 201936Z 2020/2024 13015KT 9999 -RA BKN017 OVC030 TEMPO 2020/2024 4000 DZRA OVC012 

 AIRPORT MAP

 RUNWAY INFORMATION
Runway 13 Runway length 5902 ft Runway width 98 ft
Runway elevation 268 ft Runway displaced threshold 0 ft Runway heading 118
Runway 31 Runway length 5902 ft Runway width 98 ft
Runway elevation 252 ft Runway displaced threshold 0 ft Runway heading 298

 AIRPORT FREQUENCIES
Type AFIS Name AFIS Frequency 124.85 MHZ

 AIRPORT NEAR NAVIGATION AIDS
Type NDB Name Myggenes Frequency 337 KHZ
Type NDB Name Nolso Frequency 404 KHZ
Type NDB Name Vagar Frequency 348 KHZ